Time;durP1;ratioP1;P1;durP2;ratioP2;P2;SDS_P1;SDS_P2;PMS_P1;PMS_P2;Temp;Humidity;BMP_temperature;BMP_pressure;BME280_temperature;BME280_humidity;BME280_pressure;Samples;Min_cycle;Max_cycle;Signal;HPM_P1;HPM_P2
2022/01/01 00:02:16;;;;;;;362.83;207.13;;;;;;;17.25;100.00;102175.09;5095932;28;20531;-55
2022/01/01 00:04:42;;;;;;;;;;;;;;;17.41;100.00;102189.25;5095907;28;20284;-53
2022/01/01 00:07:11;;;;;;;257.50;145.67;;;;;;;17.33;100.00;102188.41;5096316;28;19927;-54
2022/01/01 00:09:37;;;;;;;264.47;147.23;;;;;;;17.23;100.00;102190.69;5096443;28;20441;-51
2022/01/01 00:12:03;;;;;;;172.27;84.50;;;;;;;17.45;100.00;102193.19;5095670;28;20360;-54
2022/01/01 00:14:31;;;;;;;123.63;61.92;;;;;;;16.89;100.00;102195.19;5096256;28;20068;-54
2022/01/01 00:16:57;;;;;;;124.40;60.53;;;;;;;17.41;100.00;102194.66;5096800;28;20048;-54
2022/01/01 00:19:22;;;;;;;134.10;61.45;;;;;;;17.43;100.00;102190.72;5096145;28;20290;-53
2022/01/01 00:21:48;;;;;;;119.87;54.07;;;;;;;17.36;100.00;102187.16;5095118;28;20059;-54
2022/01/01 00:24:13;;;;;;;112.28;51.35;;;;;;;17.17;100.00;102199.63;5096730;28;20040;-56
2022/01/01 00:26:40;;;;;;;116.68;52.95;;;;;;;17.26;100.00;102198.38;5096606;28;20477;-53
2022/01/01 00:29:06;;;;;;;;;;;;;;;17.46;100.00;102197.56;5096302;28;20028;-55
2022/01/01 00:31:31;;;;;;;121.53;56.17;;;;;;;17.35;100.00;102204.41;5096642;28;19918;-55
2022/01/01 00:33:59;;;;;;;118.38;56.67;;;;;;;17.15;100.00;102188.19;5096199;28;20481;-55
2022/01/01 00:36:25;;;;;;;100.50;51.33;;;;;;;17.29;100.00;102191.75;5096067;28;20040;-53
2022/01/01 00:38:51;;;;;;;104.30;50.70;;;;;;;16.84;100.00;102195.81;5096197;28;20269;-55
2022/01/01 00:41:17;;;;;;;122.53;53.00;;;;;;;17.08;100.00;102192.78;5095856;28;20280;-53
2022/01/01 00:43:43;;;;;;;96.20;42.58;;;;;;;16.72;100.00;102181.22;5095895;28;20494;-51
2022/01/01 00:46:08;;;;;;;102.57;46.13;;;;;;;17.13;100.00;102179.47;5096262;28;20036;-53
2022/01/01 00:48:34;;;;;;;104.60;42.40;;;;;;;17.18;100.00;102179.66;5095969;28;20055;-54
2022/01/01 00:50:59;;;;;;;97.33;44.47;;;;;;;16.95;100.00;102182.72;5095891;28;20280;-52
2022/01/01 00:53:25;;;;;;;91.43;43.07;;;;;;;17.01;100.00;102188.16;5095827;28;20123;-55
2022/01/01 00:55:50;;;;;;;107.53;50.60;;;;;;;17.41;100.00;102183.84;5095517;28;20260;-55
2022/01/01 00:58:15;;;;;;;128.17;64.13;;;;;;;17.62;100.00;102191.72;5095749;28;20174;-54
2022/01/01 01:00:41;;;;;;;134.83;64.33;;;;;;;17.53;100.00;102193.00;5095702;28;20291;-55
2022/01/01 01:03:15;;;;;;;138.67;69.80;;;;;;;17.75;100.00;102196.28;5094516;28;20732;-55
2022/01/01 01:05:43;;;;;;;144.07;74.23;;;;;;;17.85;100.00;102189.59;5098414;28;20111;-52
2022/01/01 01:08:10;;;;;;;138.37;74.10;;;;;;;17.68;100.00;102189.22;5095653;28;20740;-54
2022/01/01 01:10:37;;;;;;;141.57;70.77;;;;;;;17.65;100.00;102204.00;5093993;28;20268;-54
2022/01/01 01:13:04;;;;;;;118.97;54.00;;;;;;;17.08;100.00;102200.88;5095768;28;20257;-55
2022/01/01 01:15:32;;;;;;;111.50;53.00;;;;;;;17.38;100.00;102179.66;5094433;28;20285;-54
2022/01/01 01:17:58;;;;;;;107.87;50.03;;;;;;;17.53;100.00;102167.81;5095011;28;20821;-55
2022/01/01 01:20:26;;;;;;;100.37;41.57;;;;;;;16.93;100.00;102177.53;5095098;28;20276;-53
2022/01/01 01:22:51;;;;;;;101.87;44.53;;;;;;;17.48;100.00;102190.06;5095291;28;20288;-55
2022/01/01 01:25:17;;;;;;;104.05;45.85;;;;;;;17.64;100.00;102186.09;5094203;28;20293;-52
2022/01/01 01:27:43;;;;;;;90.53;44.25;;;;;;;17.18;100.00;102194.03;5094101;28;20048;-52
2022/01/01 01:30:12;;;;;;;102.40;47.42;;;;;;;17.36;100.00;102194.44;5095406;28;20044;-54
2022/01/01 01:32:38;;;;;;;80.50;43.00;;;;;;;17.34;100.00;102200.06;5094858;28;20036;-55
2022/01/01 01:35:05;;;;;;;99.40;43.10;;;;;;;17.51;100.00;102200.47;5095080;28;20263;-54
2022/01/01 01:37:31;;;;;;;92.30;41.33;;;;;;;17.14;100.00;102200.06;5093766;28;20330;-53
2022/01/01 01:39:57;;;;;;;99.70;43.00;;;;;;;17.59;100.00;102194.00;5095235;28;20268;-53
2022/01/01 01:42:25;;;;;;;100.55;42.03;;;;;;;17.53;100.00;102198.41;5076537;28;20276;-52
2022/01/01 01:44:53;;;;;;;92.93;39.63;;;;;;;17.41;100.00;102205.47;5094949;28;20039;-54
2022/01/01 01:47:28;;;;;;;91.07;39.63;;;;;;;17.57;100.00;102205.06;5093232;28;20325;-52
2022/01/01 01:49:54;;;;;;;87.03;37.20;;;;;;;17.61;100.00;102225.22;5093345;28;20349;-54
2022/01/01 01:52:20;;;;;;;87.60;35.40;;;;;;;17.88;100.00;102227.91;5093281;28;20273;-52
2022/01/01 01:54:47;;;;;;;80.47;34.50;;;;;;;17.61;100.00;102224.38;5094034;28;20075;-52
2022/01/01 01:57:13;;;;;;;85.20;36.97;;;;;;;17.49;100.00;102238.53;5076855;28;20070;-53
2022/01/01 01:59:40;;;;;;;78.13;33.92;;;;;;;17.15;100.00;102234.16;5093319;28;20269;-52
2022/01/01 02:02:07;;;;;;;82.37;33.50;;;;;;;17.19;100.00;102233.53;5093504;28;20059;-51
2022/01/01 02:04:33;;;;;;;93.07;36.67;;;;;;;17.24;100.00;102226.69;5094310;28;20315;-52
2022/01/01 02:06:58;;;;;;;85.80;34.85;;;;;;;17.31;100.00;102228.34;5094447;28;20320;-54
2022/01/01 02:09:24;;;;;;;91.07;37.30;;;;;;;17.03;100.00;102223.94;5093094;28;20047;-54
2022/01/01 02:11:53;;;;;;;85.23;35.90;;;;;;;17.32;100.00;102226.47;5093800;28;20040;-53
2022/01/01 02:19:26;;;;;;;85.07;32.47;;;;;;;17.51;100.00;102216.69;5094575;28;19924;-52
2022/01/01 02:21:54;;;;;;;81.17;32.53;;;;;;;17.52;100.00;102212.94;5092919;28;20331;-52
2022/01/01 02:24:20;;;;;;;83.17;33.23;;;;;;;17.61;100.00;102211.72;5094454;28;20292;-55
2022/01/01 02:26:46;;;;;;;67.40;32.07;;;;;;;17.71;100.00;102224.81;5092938;28;20288;-52
2022/01/01 02:29:12;;;;;;;91.35;32.78;;;;;;;18.27;100.00;102219.09;5094398;28;20620;-54
2022/01/01 02:31:37;;;;;;;80.05;33.78;;;;;;;17.38;100.00;102222.13;5079992;28;20075;-55
2022/01/01 02:34:05;;;;;;;76.47;35.28;;;;;;;17.36;100.00;102216.91;5096015;28;20039;-52
2022/01/01 02:36:35;;;;;;;88.50;34.60;;;;;;;17.94;100.00;102230.81;5094011;28;20097;-53
2022/01/01 02:39:17;;;;;;;84.50;36.83;;;;;;;17.60;100.00;102214.59;5075910;28;20644;-54
2022/01/01 02:41:43;;;;;;;91.23;38.60;;;;;;;17.55;100.00;102223.38;5094565;28;20272;-55
2022/01/01 02:44:09;;;;;;;86.65;38.42;;;;;;;17.42;100.00;102204.44;5093006;28;20671;-55
2022/01/01 02:46:35;;;;;;;96.47;38.65;;;;;;;17.10;100.00;102202.31;5092603;28;20043;-53
2022/01/01 02:49:01;;;;;;;91.55;39.60;;;;;;;17.49;100.00;102197.97;5092464;28;20032;-54
2022/01/01 02:51:27;;;;;;;102.28;42.10;;;;;;;17.65;100.00;102190.50;5093784;28;20487;-54
2022/01/01 02:53:53;;;;;;;86.22;38.38;;;;;;;17.67;100.00;102190.25;5093619;28;20035;-53
2022/01/01 02:56:19;;;;;;;97.40;40.70;;;;;;;17.38;100.00;102198.59;5093554;28;20032;-56
2022/01/01 02:58:45;;;;;;;92.43;41.45;;;;;;;17.31;100.00;102189.66;5092360;28;20047;-55
2022/01/01 03:01:10;;;;;;;99.47;42.10;;;;;;;17.39;100.00;102175.91;5094007;28;20449;-56
2022/01/01 03:03:36;;;;;;;102.85;42.17;;;;;;;17.51;100.00;102184.22;5093821;28;20036;-52
2022/01/01 03:06:02;;;;;;;104.40;43.97;;;;;;;17.92;100.00;102190.44;5092347;28;20040;-53
2022/01/01 03:08:28;;;;;;;;;;;;;;;17.53;100.00;102193.00;5093877;28;20035;-52
2022/01/01 03:10:53;;;;;;;77.93;37.43;;;;;;;17.47;100.00;102191.09;5093354;28;19916;-56
2022/01/01 03:13:19;;;;;;;89.53;39.60;;;;;;;17.46;100.00;102201.09;5092429;28;20028;-55
2022/01/01 03:15:44;;;;;;;92.80;38.63;;;;;;;17.55;100.00;102203.59;5094093;28;20346;-55
2022/01/01 03:18:10;;;;;;;96.28;36.50;;;;;;;17.75;100.00;102198.16;5092590;28;20032;-55
2022/01/01 03:20:36;;;;;;;95.25;38.78;;;;;;;17.57;100.00;102196.09;5093339;28;20051;-55
2022/01/01 03:23:03;;;;;;;85.78;35.58;;;;;;;17.57;100.00;102194.25;5093187;28;20040;-54
2022/01/01 03:25:29;;;;;;;82.03;34.90;;;;;;;17.63;100.00;102196.09;5093183;28;20044;-51
2022/01/01 03:27:57;;;;;;;85.30;34.87;;;;;;;17.38;100.00;102193.19;5092128;28;20283;-51
2022/01/01 03:30:22;;;;;;;78.13;33.07;;;;;;;17.42;100.00;102194.47;5093440;28;20268;-52
2022/01/01 03:32:48;;;;;;;81.55;36.05;;;;;;;17.38;100.00;102182.38;5093434;28;20348;-55
2022/01/01 03:35:14;;;;;;;80.28;31.90;;;;;;;17.56;100.00;102176.34;5096716;28;20170;-52
2022/01/01 03:37:40;;;;;;;63.47;28.63;;;;;;;17.32;100.00;102181.34;5097140;28;20059;-52
2022/01/01 03:40:06;;;;;;;56.45;23.98;;;;;;;17.35;100.00;102171.97;5097351;28;20040;-53
2022/01/01 03:42:32;;;;;;;56.35;23.27;;;;;;;17.05;100.00;102189.41;5096165;28;20064;-54
2022/01/01 03:44:57;;;;;;;59.23;22.43;;;;;;;17.20;100.00;102185.69;5097134;28;20067;-56
2022/01/01 03:47:22;;;;;;;58.97;20.70;;;;;;;17.22;100.00;102180.09;5079042;28;20362;-55
2022/01/01 03:49:49;;;;;;;54.23;21.67;;;;;;;16.99;100.00;102175.91;5096853;28;20048;-54
2022/01/01 03:52:16;;;;;;;74.70;30.47;;;;;;;17.09;100.00;102183.63;5063191;28;20047;-55
2022/01/01 03:54:41;;;;;;;71.70;30.97;;;;;;;17.57;100.00;102183.41;5097463;28;20716;-54
2022/01/01 03:57:07;;;;;;;66.75;25.55;;;;;;;17.31;100.00;102182.41;5096849;28;20036;-51
2022/01/01 03:59:33;;;;;;;45.58;20.02;;;;;;;17.42;100.00;102174.69;5099466;28;20523;-57
2022/01/01 04:01:59;;;;;;;;;;;;;;;17.19;100.00;102170.53;5100772;28;20040;-55
2022/01/01 04:04:26;;;;;;;42.07;18.00;;;;;;;17.15;100.00;102175.50;5079572;28;19923;-53
2022/01/01 04:06:52;;;;;;;55.37;17.53;;;;;;;17.40;100.00;102176.75;5096009;28;20059;-55
2022/01/01 04:09:18;;;;;;;42.75;18.17;;;;;;;17.49;100.00;102180.91;5078937;28;20322;-53
2022/01/01 04:11:43;;;;;;;63.00;19.13;;;;;;;17.56;100.00;102172.78;5095857;28;20051;-58
2022/01/01 04:14:12;;;;;;;48.80;18.13;;;;;;;17.45;100.00;102177.81;5095441;28;20090;-52
2022/01/01 04:16:39;;;;;;;46.07;16.40;;;;;;;17.67;100.00;102184.84;5096735;28;20044;-53
2022/01/01 04:19:04;;;;;;;48.53;16.42;;;;;;;17.59;100.00;102188.59;5096461;28;20365;-53
2022/01/01 04:21:29;;;;;;;40.00;16.10;;;;;;;17.56;100.00;102181.75;5096627;28;20063;-55
2022/01/01 04:23:55;;;;;;;40.50;17.17;;;;;;;18.06;100.00;102175.03;5096517;28;20109;-52
2022/01/01 04:26:21;;;;;;;46.57;16.03;;;;;;;18.25;100.00;102180.59;5096685;28;20276;-55
2022/01/01 04:28:46;;;;;;;47.53;15.95;;;;;;;17.83;100.00;102175.44;5097493;28;20535;-52
2022/01/01 04:31:14;;;;;;;37.93;14.80;;;;;;;18.13;100.00;102183.94;5096455;28;20043;-55
2022/01/01 04:33:40;;;;;;;38.10;14.90;;;;;;;18.50;100.00;102191.50;5096398;28;20028;-53
2022/01/01 04:36:05;;;;;;;36.37;14.50;;;;;;;18.21;100.00;102174.75;5096376;28;20327;-53
2022/01/01 04:40:56;;;;;;;37.80;13.70;;;;;;;18.08;100.00;102174.78;5096289;28;20047;-55
2022/01/01 04:43:22;;;;;;;32.20;14.77;;;;;;;17.95;100.00;102179.19;5096044;28;20418;-55
2022/01/01 04:45:47;;;;;;;40.05;13.93;;;;;;;17.95;100.00;102178.34;5094453;28;20395;-54
2022/01/01 04:48:13;;;;;;;36.83;13.93;;;;;;;17.74;100.00;102175.69;5095778;28;20119;-55
2022/01/01 04:50:38;;;;;;;34.47;13.13;;;;;;;17.59;100.00;102172.38;5096441;28;20058;-56
2022/01/01 04:53:03;;;;;;;47.07;14.83;;;;;;;17.37;100.00;102177.19;5096030;28;20074;-55
2022/01/01 04:55:29;;;;;;;32.83;13.80;;;;;;;17.49;100.00;102175.50;5095754;28;20123;-55
2022/01/01 04:57:54;;;;;;;38.08;13.60;;;;;;;17.47;100.00;102169.47;5095899;28;20047;-55
2022/01/01 05:00:20;;;;;;;41.40;13.60;;;;;;;17.66;100.00;102180.47;5095568;28;20476;-54
2022/01/01 05:02:45;;;;;;;42.97;14.17;;;;;;;17.30;100.00;102182.59;5095588;28;20272;-54
2022/01/01 05:05:11;;;;;;;29.03;12.90;;;;;;;17.79;100.00;102185.88;5095819;28;20785;-52
2022/01/01 05:07:36;;;;;;;26.25;11.98;;;;;;;17.82;100.00;102185.47;5095941;28;20044;-53
2022/01/01 05:10:02;;;;;;;35.30;13.77;;;;;;;17.83;100.00;102189.81;5094929;28;20040;-52
2022/01/01 05:12:28;;;;;;;29.35;12.38;;;;;;;17.79;100.00;102185.88;5094175;28;20047;-53
2022/01/01 05:14:53;;;;;;;25.55;12.50;;;;;;;18.09;100.00;102188.13;5077134;28;20127;-53
2022/01/01 05:17:19;;;;;;;35.57;12.70;;;;;;;17.89;100.00;102186.28;5095538;28;20032;-56
2022/01/01 05:19:45;;;;;;;34.45;12.23;;;;;;;17.90;100.00;102181.69;5094325;28;20032;-55
2022/01/01 05:22:10;;;;;;;32.13;11.27;;;;;;;17.54;100.00;102173.03;5095227;28;20043;-54
2022/01/01 05:24:36;;;;;;;27.83;11.30;;;;;;;17.63;100.00;102174.47;5094370;28;20369;-52
2022/01/01 05:27:01;;;;;;;34.55;11.75;;;;;;;17.53;100.00;102182.19;5096927;28;20350;-55
2022/01/01 05:29:27;;;;;;;27.80;11.20;;;;;;;18.10;100.00;102186.22;5096765;28;20415;-55
2022/01/01 05:31:53;;;;;;;25.33;11.93;;;;;;;17.77;100.00;102186.09;5096082;28;20032;-53
2022/01/01 05:34:18;;;;;;;26.13;11.50;;;;;;;17.68;100.00;102181.94;5094042;28;20044;-52
2022/01/01 05:36:44;;;;;;;26.27;11.45;;;;;;;17.73;100.00;102190.25;5093752;28;20040;-53
2022/01/01 05:39:10;;;;;;;26.95;10.60;;;;;;;18.13;100.00;102183.13;5095193;28;20075;-55
2022/01/01 05:41:35;;;;;;;24.30;9.88;;;;;;;17.77;100.00;102182.56;5093671;28;20126;-54
2022/01/01 05:44:01;;;;;;;28.80;10.00;;;;;;;17.91;100.00;102178.75;5095333;28;20044;-55
2022/01/01 05:46:29;;;;;;;30.38;10.90;;;;;;;17.87;100.00;102174.81;5094569;28;20729;-55
2022/01/01 05:48:55;;;;;;;26.60;10.00;;;;;;;17.62;100.00;102178.19;5093542;28;20115;-54
2022/01/01 05:51:20;;;;;;;31.20;10.73;;;;;;;17.93;100.00;102186.69;5094553;28;20742;-55
2022/01/01 05:53:46;;;;;;;27.93;9.70;;;;;;;17.87;100.00;102172.13;5093667;28;20280;-56
2022/01/01 05:56:11;;;;;;;37.50;10.65;;;;;;;17.75;100.00;102169.22;5076852;28;20373;-55
2022/01/01 05:58:36;;;;;;;33.03;10.30;;;;;;;17.73;100.00;102175.88;5094714;28;20043;-54
2022/01/01 06:01:02;;;;;;;25.77;8.80;;;;;;;17.51;100.00;102168.00;5095096;28;20474;-55
2022/01/01 06:03:27;;;;;;;21.02;8.38;;;;;;;17.39;100.00;102169.69;5093740;28;20363;-53
2022/01/01 06:05:53;;;;;;;20.07;9.17;;;;;;;17.52;100.00;102166.97;5094410;28;20040;-54
2022/01/01 06:08:19;;;;;;;23.73;8.98;;;;;;;17.51;100.00;102173.41;5094464;28;20186;-53
2022/01/01 06:10:45;;;;;;;20.88;8.07;;;;;;;17.52;100.00;102175.06;5093477;28;20627;-56
2022/01/01 06:13:10;;;;;;;22.67;8.05;;;;;;;17.71;100.00;102177.97;5093227;28;20046;-56
2022/01/01 06:15:36;;;;;;;31.50;8.32;;;;;;;17.48;100.00;102165.72;5076942;28;20478;-54
2022/01/01 06:18:02;;;;;;;28.17;8.57;;;;;;;17.44;100.00;102161.78;5094347;28;20036;-53
2022/01/01 06:20:28;;;;;;;30.43;9.50;;;;;;;17.39;100.00;102153.47;5093781;28;20039;-54
2022/01/01 06:22:54;;;;;;;25.67;7.85;;;;;;;17.62;100.00;102159.28;5094375;28;20275;-56
2022/01/01 06:25:19;;;;;;;24.35;8.15;;;;;;;17.48;100.00;102168.44;5094221;28;20059;-56
2022/01/01 06:27:45;;;;;;;23.80;8.43;;;;;;;17.27;100.00;102173.00;5094311;28;20499;-54
2022/01/01 06:30:11;;;;;;;19.70;7.73;;;;;;;16.97;100.00;102167.97;5093890;28;20048;-54
2022/01/01 06:32:36;;;;;;;23.00;7.45;;;;;;;17.34;100.00;102163.03;5093874;28;20280;-51
2022/01/01 06:35:03;;;;;;;29.98;8.90;;;;;;;16.91;100.00;102155.28;5093922;28;20032;-54
2022/01/01 06:37:28;;;;;;;;;;;;;;;16.91;100.00;102168.81;5094725;28;20525;-54
2022/01/01 06:39:54;;;;;;;20.10;6.90;;;;;;;17.34;100.00;102171.16;5093795;28;19916;-54
2022/01/01 06:42:19;;;;;;;16.65;6.65;;;;;;;17.03;100.00;102164.47;5093727;28;20040;-51
2022/01/01 06:44:45;;;;;;;16.27;5.88;;;;;;;16.76;100.00;102171.69;5093556;28;20053;-51
2022/01/01 06:47:11;;;;;;;17.75;6.35;;;;;;;16.91;100.00;102163.41;5093854;28;20044;-52
2022/01/01 06:49:36;;;;;;;19.17;6.72;;;;;;;16.85;100.00;102169.63;5094015;28;20119;-55
2022/01/01 06:52:03;;;;;;;15.07;6.68;;;;;;;16.69;100.00;102171.66;5076570;28;20464;-56
2022/01/01 06:54:29;;;;;;;19.80;7.07;;;;;;;16.81;100.00;102174.59;5095465;28;20027;-58
2022/01/01 06:56:55;;;;;;;18.55;7.18;;;;;;;16.97;100.00;102183.38;5099542;28;20361;-54
2022/01/01 06:59:20;;;;;;;23.90;7.20;;;;;;;16.70;100.00;102184.13;5095759;28;20044;-53
2022/01/01 07:01:46;;;;;;;16.27;5.17;;;;;;;16.95;100.00;102191.66;5092549;28;20284;-56
2022/01/01 07:04:11;;;;;;;20.45;7.18;;;;;;;17.09;100.00;102191.72;5093480;28;20077;-54
2022/01/01 07:06:37;;;;;;;21.17;5.70;;;;;;;17.17;100.00;102202.34;5075939;28;20060;-55
2022/01/01 07:09:04;;;;;;;20.10;5.90;;;;;;;16.99;100.00;102203.75;5097318;28;20122;-55
2022/01/01 07:11:29;;;;;;;20.60;5.47;;;;;;;17.16;100.00;102206.91;5099223;28;20076;-54
2022/01/01 07:13:55;;;;;;;18.90;5.72;;;;;;;17.06;100.00;102207.28;5100179;28;20079;-54
2022/01/01 07:16:20;;;;;;;26.58;6.40;;;;;;;17.07;100.00;102200.03;5100996;28;20059;-51
2022/01/01 07:18:46;;;;;;;18.70;5.47;;;;;;;17.33;100.00;102210.06;5100133;28;20040;-52
2022/01/01 07:21:12;;;;;;;17.13;6.57;;;;;;;16.96;100.00;102209.53;5100594;28;20272;-54
2022/01/01 07:23:37;;;;;;;16.10;5.53;;;;;;;17.19;100.00;102213.78;5100598;28;20032;-52
2022/01/01 07:26:03;;;;;;;15.87;5.60;;;;;;;17.33;100.00;102212.75;5099018;28;20384;-52
2022/01/01 07:28:28;;;;;;;16.50;5.70;;;;;;;17.34;100.00;102219.81;5098794;28;20048;-54
2022/01/01 07:30:54;;;;;;;20.47;5.80;;;;;;;17.51;100.00;102218.56;5099002;28;20283;-56
2022/01/01 07:33:19;;;;;;;26.90;5.97;;;;;;;17.48;100.00;102214.41;5100053;28;20473;-53
2022/01/01 07:35:45;;;;;;;14.98;4.93;;;;;;;17.32;100.00;102230.00;5099418;28;20058;-55
2022/01/01 07:38:10;;;;;;;14.80;5.27;;;;;;;17.41;100.00;102214.41;5098944;28;20418;-54
2022/01/01 07:40:38;;;;;;;16.58;5.85;;;;;;;17.32;100.00;102221.06;5099879;28;20103;-54
2022/01/01 07:43:13;;;;;;;15.30;5.37;;;;;;;17.06;100.00;102215.41;5100837;28;20571;-53
2022/01/01 07:45:41;;;;;;;26.77;6.63;;;;;;;17.24;100.00;102222.09;5102767;28;20284;-55
2022/01/01 07:48:07;;;;;;;20.97;5.93;;;;;;;17.17;100.00;102223.97;5104085;28;20292;-53
2022/01/01 07:50:34;;;;;;;17.45;5.18;;;;;;;17.18;100.00;102222.91;5098934;28;20311;-55
2022/01/01 07:53:00;;;;;;;16.85;5.22;;;;;;;17.05;100.00;102216.44;5099820;28;20086;-55
2022/01/01 07:55:26;;;;;;;;;;;;;;;17.22;100.00;102231.47;5100733;28;20101;-55
2022/01/01 07:57:51;;;;;;;18.20;6.00;;;;;;;17.39;100.00;102224.59;5099137;28;20355;-54
2022/01/01 08:00:17;;;;;;;16.13;5.97;;;;;;;17.00;100.00;102215.41;5099717;28;20044;-54
2022/01/01 08:02:44;;;;;;;24.13;8.38;;;;;;;17.08;100.00;102220.63;5099584;28;20032;-55
2022/01/01 08:05:11;;;;;;;21.13;7.00;;;;;;;17.11;100.00;102228.31;5100163;28;20043;-56
2022/01/01 08:07:36;;;;;;;;;;;;;;;17.05;100.00;102219.16;5100217;28;20300;-54
2022/01/01 08:10:03;;;;;;;26.97;9.30;;;;;;;16.98;100.00;102218.31;5100569;28;19920;-53
2022/01/01 08:12:29;;;;;;;27.80;9.27;;;;;;;16.83;100.00;102225.72;5099596;28;20447;-54
2022/01/01 08:14:56;;;;;;;21.57;8.13;;;;;;;16.92;100.00;102222.63;5098370;28;20284;-53
2022/01/01 08:17:23;;;;;;;17.27;6.83;;;;;;;16.95;100.00;102226.81;5098622;28;20044;-54
2022/01/01 08:19:49;;;;;;;19.52;5.57;;;;;;;17.20;100.00;102223.53;5097904;28;20283;-52
2022/01/01 08:22:14;;;;;;;16.65;6.03;;;;;;;17.15;100.00;102226.84;5096778;28;20044;-52
2022/01/01 08:24:41;;;;;;;19.88;5.40;;;;;;;17.10;100.00;102237.47;5095882;28;20042;-52
2022/01/01 08:27:07;;;;;;;22.05;5.55;;;;;;;16.94;100.00;102227.84;5096975;28;20036;-52
2022/01/01 08:29:32;;;;;;;16.63;4.95;;;;;;;17.04;100.00;102227.47;5096221;28;20468;-50
2022/01/01 08:31:58;;;;;;;19.13;5.40;;;;;;;17.03;100.00;102232.03;5096384;28;20042;-50
2022/01/01 08:34:24;;;;;;;15.85;5.72;;;;;;;17.27;100.00;102231.66;5096370;28;20040;-54
2022/01/01 08:36:50;;;;;;;14.23;5.25;;;;;;;17.50;100.00;102242.06;5095975;28;20075;-55
2022/01/01 08:39:16;;;;;;;13.40;5.03;;;;;;;17.20;100.00;102224.41;5095136;28;20079;-54
2022/01/01 08:41:43;;;;;;;13.25;4.82;;;;;;;17.24;100.00;102226.69;5095960;28;20040;-55
2022/01/01 08:44:09;;;;;;;19.87;5.43;;;;;;;17.34;100.00;102229.78;5096441;28;20047;-53
2022/01/01 08:46:34;;;;;;;18.50;5.40;;;;;;;17.13;100.00;102222.72;5094921;28;20640;-54
2022/01/01 08:49:00;;;;;;;13.73;5.00;;;;;;;16.98;100.00;102223.72;5095869;28;20616;-55
2022/01/01 08:51:26;;;;;;;24.02;5.10;;;;;;;17.06;100.00;102223.50;5094910;28;20047;-54
2022/01/01 08:53:52;;;;;;;17.92;4.55;;;;;;;16.94;100.00;102235.09;5096243;28;20093;-53
2022/01/01 08:56:17;;;;;;;12.10;4.15;;;;;;;16.94;100.00;102221.59;5095672;28;20032;-54
2022/01/01 08:58:45;;;;;;;14.93;4.75;;;;;;;17.03;100.00;102221.22;5096133;28;20090;-55
2022/01/01 09:01:10;;;;;;;16.50;5.33;;;;;;;16.88;100.00;102234.06;5095611;28;20032;-55
2022/01/01 09:03:37;;;;;;;15.23;5.32;;;;;;;16.82;100.00;102224.06;5095911;28;20272;-55
2022/01/01 09:06:04;;;;;;;18.70;6.70;;;;;;;17.02;100.00;102229.56;5095597;28;20039;-55
2022/01/01 09:08:30;;;;;;;16.27;6.90;;;;;;;17.09;100.00;102229.56;5095166;28;20299;-53
2022/01/01 09:10:56;;;;;;;21.23;8.75;;;;;;;17.24;100.00;102227.50;5094138;28;20326;-54
2022/01/01 09:13:21;;;;;;;23.15;9.63;;;;;;;17.09;100.00;102224.16;5094162;28;20071;-53
2022/01/01 09:15:48;;;;;;;21.07;10.57;;;;;;;17.30;100.00;102237.50;5094995;28;20063;-54
2022/01/01 09:18:13;;;;;;;28.87;12.93;;;;;;;17.52;100.00;102229.16;5094734;28;20404;-53
2022/01/01 09:20:39;;;;;;;33.13;12.95;;;;;;;17.23;100.00;102230.41;5095199;28;20264;-54
2022/01/01 09:23:04;;;;;;;28.10;11.43;;;;;;;17.29;100.00;102222.28;5095201;28;20492;-52
2022/01/01 09:25:30;;;;;;;33.23;10.67;;;;;;;17.48;100.00;102227.94;5097950;28;20127;-55
2022/01/01 09:27:55;;;;;;;17.65;8.10;;;;;;;17.32;100.00;102213.78;5095070;28;20051;-52
2022/01/01 09:30:21;;;;;;;20.95;6.32;;;;;;;17.27;100.00;102204.63;5095289;28;20039;-55
2022/01/01 09:32:46;;;;;;;11.65;5.35;;;;;;;17.08;100.00;102206.28;5093820;28;20032;-55
2022/01/01 09:35:14;;;;;;;13.20;5.47;;;;;;;17.13;100.00;102204.59;5095785;28;20162;-55
2022/01/01 09:37:39;;;;;;;16.40;5.43;;;;;;;17.22;100.00;102226.06;5077305;28;20040;-54
2022/01/01 09:40:05;;;;;;;14.83;5.40;;;;;;;17.07;100.00;102221.66;5095345;28;20261;-55
2022/01/01 09:42:32;;;;;;;17.67;6.63;;;;;;;17.29;100.00;102207.97;5095556;28;20050;-54
2022/01/01 09:44:58;;;;;;;14.70;5.65;;;;;;;17.29;100.00;102211.47;5095044;28;20062;-54
2022/01/01 09:47:24;;;;;;;14.23;5.73;;;;;;;17.32;100.00;102202.97;5094969;28;20093;-53
2022/01/01 09:49:49;;;;;;;14.30;5.85;;;;;;;17.29;100.00;102211.47;5094129;28;20284;-55
2022/01/01 09:52:17;;;;;;;17.33;6.10;;;;;;;17.33;100.00;102198.38;5095100;28;20032;-53
2022/01/01 09:54:43;;;;;;;16.87;7.00;;;;;;;17.23;100.00;102197.97;5094856;28;20048;-51
2022/01/01 09:57:10;;;;;;;;;;;;;;;17.52;100.00;102199.41;5094486;28;20376;-55
2022/01/01 09:59:40;;;;;;;19.60;6.50;;;;;;;17.84;100.00;102188.78;5094743;28;19919;-51
2022/01/01 10:02:06;;;;;;;13.10;5.60;;;;;;;17.71;100.00;102192.34;5094853;28;20040;-51
2022/01/01 10:04:43;;;;;;;17.20;6.53;;;;;;;18.32;100.00;102192.22;5093363;28;20334;-54
2022/01/01 10:07:08;;;;;;;;;;;;;;;18.23;100.00;102177.25;5094939;28;20097;-54
2022/01/01 10:09:39;;;;;;;19.57;5.87;;;;;;;18.43;100.00;102174.47;5098365;28;19928;-56
2022/01/01 10:12:07;;;;;;;18.67;6.13;;;;;;;18.46;100.00;102174.88;5094233;28;20058;-53
2022/01/01 10:14:40;;;;;;;25.23;6.57;;;;;;;18.66;100.00;102184.75;5094483;28;20304;-52
2022/01/01 10:17:18;;;;;;;21.30;5.90;;;;;;;18.87;100.00;102166.47;5094637;28;20269;-54
2022/01/01 10:19:43;;;;;;;;;;;;;;;19.11;100.00;102172.19;5094617;28;20409;-53
2022/01/01 10:22:13;;;;;;;14.70;6.00;;;;;;;19.42;100.00;102176.72;5093212;28;19990;-55
2022/01/01 10:27:43;;;;;;;16.23;6.77;;;;;;;19.70;100.00;102161.03;5094155;28;20039;-55
2022/01/01 10:30:36;;;;;;;12.53;6.20;;;;;;;19.37;100.00;102164.88;5094556;28;20044;-54
2022/01/01 10:33:05;;;;;;;12.13;5.90;;;;;;;18.66;100.00;102165.78;5094222;28;20054;-55
2022/01/01 10:35:44;;;;;;;16.37;5.97;;;;;;;19.08;100.00;102159.06;5094287;28;20020;-56
2022/01/01 10:38:13;;;;;;;18.83;6.10;;;;;;;19.73;100.00;102176.84;5093972;28;20093;-55
2022/01/01 10:40:39;;;;;;;18.43;7.50;;;;;;;19.97;100.00;102166.19;5092903;28;20432;-55
2022/01/01 10:43:05;;;;;;;15.77;5.97;;;;;;;19.99;100.00;102166.78;5093525;28;20051;-55
2022/01/01 10:45:36;;;;;;;11.63;6.00;;;;;;;19.53;100.00;102166.22;5094556;28;20036;-52
2022/01/01 10:48:05;;;;;;;13.07;6.07;;;;;;;19.02;100.00;102167.03;5092697;28;20043;-55
2022/01/01 10:50:32;;;;;;;13.83;6.40;;;;;;;19.10;100.00;102151.53;5093129;28;20373;-54
2022/01/01 10:53:10;;;;;;;16.43;6.37;;;;;;;19.01;100.00;102157.25;5092675;28;20131;-53
2022/01/01 10:55:40;;;;;;;17.07;7.50;;;;;;;18.70;100.00;102153.47;5093942;28;20092;-54
2022/01/01 10:58:05;;;;;;;16.13;7.97;;;;;;;18.90;100.00;102155.19;5093425;28;20630;-55
2022/01/01 11:00:39;;;;;;;16.65;7.50;;;;;;;19.10;100.00;102143.41;5093803;28;20079;-54
2022/01/01 11:03:15;;;;;;;14.30;7.30;;;;;;;19.31;100.00;102153.88;5094284;28;20032;-52
2022/01/01 11:05:41;;;;;;;14.63;6.93;;;;;;;18.98;100.00;102154.09;5094218;28;20498;-53
2022/01/01 11:08:09;;;;;;;16.83;6.60;;;;;;;18.92;100.00;102159.38;5092182;28;20054;-55
2022/01/01 11:10:36;;;;;;;13.20;6.40;;;;;;;18.90;100.00;102153.34;5093664;28;20172;-55
2022/01/01 11:13:03;;;;;;;16.93;6.83;;;;;;;18.92;100.00;102147.72;5093559;28;20040;-53
2022/01/01 11:15:29;;;;;;;17.07;7.10;;;;;;;18.71;100.00;102162.41;5094490;28;20055;-53